sensor_id;sensor_type;location;lat;lon;timestamp;temperature;humidity
14946;DHT22;7567;50.916;6.900;2022-08-19T00:01:25;17.90;99.90
14946;DHT22;7567;50.916;6.900;2022-08-19T00:03:51;17.90;99.90
14946;DHT22;7567;50.916;6.900;2022-08-19T00:06:17;17.90;99.90
14946;DHT22;7567;50.916;6.900;2022-08-19T00:08:43;17.90;99.90
14946;DHT22;7567;50.916;6.900;2022-08-19T00:11:09;17.80;99.90
14946;DHT22;7567;50.916;6.900;2022-08-19T00:13:34;17.80;99.90
14946;DHT22;7567;50.916;6.900;2022-08-19T00:16:01;17.80;99.90
14946;DHT22;7567;50.916;6.900;2022-08-19T00:18:27;17.80;99.90
14946;DHT22;7567;50.916;6.900;2022-08-19T00:20:53;17.80;99.90
14946;DHT22;7567;50.916;6.900;2022-08-19T00:23:19;17.80;99.90
14946;DHT22;7567;50.916;6.900;2022-08-19T00:25:45;17.80;99.90
14946;DHT22;7567;50.916;6.900;2022-08-19T00:28:11;17.70;99.90
14946;DHT22;7567;50.916;6.900;2022-08-19T00:30:37;17.70;99.90
14946;DHT22;7567;50.916;6.900;2022-08-19T00:33:03;17.70;99.90
14946;DHT22;7567;50.916;6.900;2022-08-19T00:35:29;17.60;99.90
14946;DHT22;7567;50.916;6.900;2022-08-19T00:37:55;17.60;99.90
14946;DHT22;7567;50.916;6.900;2022-08-19T00:40:21;17.60;99.90
14946;DHT22;7567;50.916;6.900;2022-08-19T00:42:47;17.60;99.90
14946;DHT22;7567;50.916;6.900;2022-08-19T00:45:21;17.60;99.90
14946;DHT22;7567;50.916;6.900;2022-08-19T00:47:48;17.60;99.90
14946;DHT22;7567;50.916;6.900;2022-08-19T00:50:17;17.60;99.90
14946;DHT22;7567;50.916;6.900;2022-08-19T00:52:46;17.60;99.90
14946;DHT22;7567;50.916;6.900;2022-08-19T00:55:24;17.60;99.90
14946;DHT22;7567;50.916;6.900;2022-08-19T00:57:58;17.50;99.90
14946;DHT22;7567;50.916;6.900;2022-08-19T01:00:26;17.50;99.90
14946;DHT22;7567;50.916;6.900;2022-08-19T01:02:53;17.50;99.90
14946;DHT22;7567;50.916;6.900;2022-08-19T01:05:23;17.50;99.90
14946;DHT22;7567;50.916;6.900;2022-08-19T01:07:50;17.50;99.90
14946;DHT22;7567;50.916;6.900;2022-08-19T01:10:19;17.50;99.90
14946;DHT22;7567;50.916;6.900;2022-08-19T01:12:47;17.50;99.90
14946;DHT22;7567;50.916;6.900;2022-08-19T01:15:16;17.50;99.90
14946;DHT22;7567;50.916;6.900;2022-08-19T01:17:43;17.40;99.90
14946;DHT22;7567;50.916;6.900;2022-08-19T01:20:12;17.40;99.90
14946;DHT22;7567;50.916;6.900;2022-08-19T01:22:47;17.40;99.90
14946;DHT22;7567;50.916;6.900;2022-08-19T01:25:15;17.40;99.90
14946;DHT22;7567;50.916;6.900;2022-08-19T01:27:45;17.40;99.90
14946;DHT22;7567;50.916;6.900;2022-08-19T01:30:16;17.40;99.90
14946;DHT22;7567;50.916;6.900;2022-08-19T01:32:42;17.30;99.90
14946;DHT22;7567;50.916;6.900;2022-08-19T01:35:11;17.40;99.90
14946;DHT22;7567;50.916;6.900;2022-08-19T01:37:52;17.30;99.90
14946;DHT22;7567;50.916;6.900;2022-08-19T01:40:21;17.30;99.90
14946;DHT22;7567;50.916;6.900;2022-08-19T01:42:51;17.30;99.90
14946;DHT22;7567;50.916;6.900;2022-08-19T01:45:18;17.20;99.90
14946;DHT22;7567;50.916;6.900;2022-08-19T01:47:44;17.20;99.90
14946;DHT22;7567;50.916;6.900;2022-08-19T01:50:11;17.20;99.90
14946;DHT22;7567;50.916;6.900;2022-08-19T01:52:39;17.10;99.90
14946;DHT22;7567;50.916;6.900;2022-08-19T01:55:08;17.00;99.90
14946;DHT22;7567;50.916;6.900;2022-08-19T01:57:34;17.00;99.90
14946;DHT22;7567;50.916;6.900;2022-08-19T02:00:00;17.00;99.90
14946;DHT22;7567;50.916;6.900;2022-08-19T02:02:27;17.10;99.90
14946;DHT22;7567;50.916;6.900;2022-08-19T02:04:53;17.10;99.90
14946;DHT22;7567;50.916;6.900;2022-08-19T02:07:20;17.00;99.90
14946;DHT22;7567;50.916;6.900;2022-08-19T02:09:47;17.00;99.90
14946;DHT22;7567;50.916;6.900;2022-08-19T02:12:14;17.00;99.90
14946;DHT22;7567;50.916;6.900;2022-08-19T02:14:42;17.00;99.90
14946;DHT22;7567;50.916;6.900;2022-08-19T02:17:08;16.90;99.90
14946;DHT22;7567;50.916;6.900;2022-08-19T02:19:34;16.90;99.90
14946;DHT22;7567;50.916;6.900;2022-08-19T02:22:00;16.90;99.90
14946;DHT22;7567;50.916;6.900;2022-08-19T02:24:26;16.90;99.90
14946;DHT22;7567;50.916;6.900;2022-08-19T02:26:53;16.90;99.90
14946;DHT22;7567;50.916;6.900;2022-08-19T02:29:19;16.90;99.90
14946;DHT22;7567;50.916;6.900;2022-08-19T02:31:45;16.90;99.90
14946;DHT22;7567;50.916;6.900;2022-08-19T02:34:10;16.80;99.90
14946;DHT22;7567;50.916;6.900;2022-08-19T02:36:36;16.80;99.90
14946;DHT22;7567;50.916;6.900;2022-08-19T02:39:02;16.80;99.90
14946;DHT22;7567;50.916;6.900;2022-08-19T02:41:31;16.80;99.90
14946;DHT22;7567;50.916;6.900;2022-08-19T02:43:59;16.70;99.90
14946;DHT22;7567;50.916;6.900;2022-08-19T02:46:29;16.70;99.90
14946;DHT22;7567;50.916;6.900;2022-08-19T02:49:01;16.70;99.90
14946;DHT22;7567;50.916;6.900;2022-08-19T02:51:36;16.60;99.90
14946;DHT22;7567;50.916;6.900;2022-08-19T02:54:03;16.70;99.90
14946;DHT22;7567;50.916;6.900;2022-08-19T02:56:30;16.70;99.90
14946;DHT22;7567;50.916;6.900;2022-08-19T02:58:57;16.70;99.90
14946;DHT22;7567;50.916;6.900;2022-08-19T03:01:24;16.70;99.90
14946;DHT22;7567;50.916;6.900;2022-08-19T03:03:50;16.70;99.90
14946;DHT22;7567;50.916;6.900;2022-08-19T03:06:17;16.70;99.90
14946;DHT22;7567;50.916;6.900;2022-08-19T03:08:44;16.70;99.90
14946;DHT22;7567;50.916;6.900;2022-08-19T03:11:20;16.70;99.90
14946;DHT22;7567;50.916;6.900;2022-08-19T03:13:46;16.60;99.90
14946;DHT22;7567;50.916;6.900;2022-08-19T03:16:14;16.60;99.90
14946;DHT22;7567;50.916;6.900;2022-08-19T03:18:40;16.60;99.90
14946;DHT22;7567;50.916;6.900;2022-08-19T03:21:06;16.50;99.90
14946;DHT22;7567;50.916;6.900;2022-08-19T03:23:32;16.50;99.90
14946;DHT22;7567;50.916;6.900;2022-08-19T03:25:58;16.50;99.90
14946;DHT22;7567;50.916;6.900;2022-08-19T03:28:24;16.60;99.90
14946;DHT22;7567;50.916;6.900;2022-08-19T03:31:04;16.50;99.90
14946;DHT22;7567;50.916;6.900;2022-08-19T03:33:32;16.50;99.90
14946;DHT22;7567;50.916;6.900;2022-08-19T03:38:37;16.50;99.90
14946;DHT22;7567;50.916;6.900;2022-08-19T03:41:06;16.50;99.90
14946;DHT22;7567;50.916;6.900;2022-08-19T03:43:37;16.50;99.90
14946;DHT22;7567;50.916;6.900;2022-08-19T03:46:15;16.50;99.90
14946;DHT22;7567;50.916;6.900;2022-08-19T03:48:43;16.50;99.90
14946;DHT22;7567;50.916;6.900;2022-08-19T03:51:20;16.50;99.90
14946;DHT22;7567;50.916;6.900;2022-08-19T03:53:47;16.40;99.90
14946;DHT22;7567;50.916;6.900;2022-08-19T03:56:14;16.40;99.90
14946;DHT22;7567;50.916;6.900;2022-08-19T03:58:40;16.40;99.90
14946;DHT22;7567;50.916;6.900;2022-08-19T04:01:16;16.40;99.90
14946;DHT22;7567;50.916;6.900;2022-08-19T04:03:44;16.50;99.90
14946;DHT22;7567;50.916;6.900;2022-08-19T04:06:20;16.50;99.90
14946;DHT22;7567;50.916;6.900;2022-08-19T04:08:48;16.40;99.90
14946;DHT22;7567;50.916;6.900;2022-08-19T04:11:17;16.40;99.90
14946;DHT22;7567;50.916;6.900;2022-08-19T04:13:45;16.40;99.90
14946;DHT22;7567;50.916;6.900;2022-08-19T04:16:11;16.40;99.90
14946;DHT22;7567;50.916;6.900;2022-08-19T04:18:38;16.50;99.90
14946;DHT22;7567;50.916;6.900;2022-08-19T04:21:04;16.50;99.90
14946;DHT22;7567;50.916;6.900;2022-08-19T04:23:31;16.50;99.90
14946;DHT22;7567;50.916;6.900;2022-08-19T04:25:57;16.50;99.90
14946;DHT22;7567;50.916;6.900;2022-08-19T04:28:24;16.50;99.90
14946;DHT22;7567;50.916;6.900;2022-08-19T04:30:52;16.50;99.90
14946;DHT22;7567;50.916;6.900;2022-08-19T04:33:22;16.50;99.90
14946;DHT22;7567;50.916;6.900;2022-08-19T04:35:50;16.50;99.90
14946;DHT22;7567;50.916;6.900;2022-08-19T04:38:19;16.60;99.90
14946;DHT22;7567;50.916;6.900;2022-08-19T04:40:50;16.60;99.90
14946;DHT22;7567;50.916;6.900;2022-08-19T04:43:36;16.60;99.90
14946;DHT22;7567;50.916;6.900;2022-08-19T04:46:10;16.60;99.90
14946;DHT22;7567;50.916;6.900;2022-08-19T04:48:36;16.60;99.90
14946;DHT22;7567;50.916;6.900;2022-08-19T04:51:07;16.50;99.90
14946;DHT22;7567;50.916;6.900;2022-08-19T04:53:36;16.50;99.90
14946;DHT22;7567;50.916;6.900;2022-08-19T04:56:12;16.50;99.90
14946;DHT22;7567;50.916;6.900;2022-08-19T04:58:40;16.60;99.90
14946;DHT22;7567;50.916;6.900;2022-08-19T05:01:13;16.60;99.90
14946;DHT22;7567;50.916;6.900;2022-08-19T05:03:39;16.60;99.90
14946;DHT22;7567;50.916;6.900;2022-08-19T05:06:11;16.60;99.90
14946;DHT22;7567;50.916;6.900;2022-08-19T05:08:39;16.60;99.90
14946;DHT22;7567;50.916;6.900;2022-08-19T05:11:19;16.60;99.90
14946;DHT22;7567;50.916;6.900;2022-08-19T05:13:46;16.70;99.90
14946;DHT22;7567;50.916;6.900;2022-08-19T05:16:15;16.70;99.90
14946;DHT22;7567;50.916;6.900;2022-08-19T05:18:41;16.70;99.90
14946;DHT22;7567;50.916;6.900;2022-08-19T05:21:26;16.80;99.90
14946;DHT22;7567;50.916;6.900;2022-08-19T05:24:12;16.90;99.90
14946;DHT22;7567;50.916;6.900;2022-08-19T05:26:43;16.90;99.90
14946;DHT22;7567;50.916;6.900;2022-08-19T05:29:13;17.00;99.90
14946;DHT22;7567;50.916;6.900;2022-08-19T05:31:40;17.10;99.90
14946;DHT22;7567;50.916;6.900;2022-08-19T05:34:06;17.30;99.90
14946;DHT22;7567;50.916;6.900;2022-08-19T05:36:41;17.40;99.90
14946;DHT22;7567;50.916;6.900;2022-08-19T05:39:10;17.50;99.90
14946;DHT22;7567;50.916;6.900;2022-08-19T05:42:03;17.50;99.90
14946;DHT22;7567;50.916;6.900;2022-08-19T05:44:30;17.60;99.90
14946;DHT22;7567;50.916;6.900;2022-08-19T05:46:57;17.70;99.90
14946;DHT22;7567;50.916;6.900;2022-08-19T05:49:24;17.80;99.90
14946;DHT22;7567;50.916;6.900;2022-08-19T05:51:51;17.90;99.90
14946;DHT22;7567;50.916;6.900;2022-08-19T05:54:18;17.90;99.90
14946;DHT22;7567;50.916;6.900;2022-08-19T05:56:45;18.00;99.90
14946;DHT22;7567;50.916;6.900;2022-08-19T05:59:14;18.10;99.90
14946;DHT22;7567;50.916;6.900;2022-08-19T06:01:41;18.10;99.90
14946;DHT22;7567;50.916;6.900;2022-08-19T06:04:08;18.20;99.90
14946;DHT22;7567;50.916;6.900;2022-08-19T06:06:35;18.40;99.90
14946;DHT22;7567;50.916;6.900;2022-08-19T06:09:02;18.50;99.90
14946;DHT22;7567;50.916;6.900;2022-08-19T06:11:44;18.70;99.90
14946;DHT22;7567;50.916;6.900;2022-08-19T06:14:14;18.90;99.90
14946;DHT22;7567;50.916;6.900;2022-08-19T06:16:41;19.00;99.90
14946;DHT22;7567;50.916;6.900;2022-08-19T06:19:14;19.20;99.90
14946;DHT22;7567;50.916;6.900;2022-08-19T06:21:43;19.40;99.90
14946;DHT22;7567;50.916;6.900;2022-08-19T06:24:11;19.60;99.90
14946;DHT22;7567;50.916;6.900;2022-08-19T06:26:41;19.70;99.90
14946;DHT22;7567;50.916;6.900;2022-08-19T06:29:08;19.90;99.90
14946;DHT22;7567;50.916;6.900;2022-08-19T06:31:35;20.00;99.90
14946;DHT22;7567;50.916;6.900;2022-08-19T06:34:04;20.30;99.90
14946;DHT22;7567;50.916;6.900;2022-08-19T06:36:36;20.60;99.90
14946;DHT22;7567;50.916;6.900;2022-08-19T06:39:04;20.70;99.90
14946;DHT22;7567;50.916;6.900;2022-08-19T06:41:34;20.90;99.90
14946;DHT22;7567;50.916;6.900;2022-08-19T06:43:59;20.90;99.90
14946;DHT22;7567;50.916;6.900;2022-08-19T06:46:25;20.90;99.90
14946;DHT22;7567;50.916;6.900;2022-08-19T06:48:52;21.10;99.90
14946;DHT22;7567;50.916;6.900;2022-08-19T06:51:18;21.10;90.20
14946;DHT22;7567;50.916;6.900;2022-08-19T06:53:48;21.20;85.50
14946;DHT22;7567;50.916;6.900;2022-08-19T06:56:21;21.20;92.60
14946;DHT22;7567;50.916;6.900;2022-08-19T06:58:47;21.20;99.90
14946;DHT22;7567;50.916;6.900;2022-08-19T07:01:17;21.20;99.90
14946;DHT22;7567;50.916;6.900;2022-08-19T07:03:43;21.20;86.50
14946;DHT22;7567;50.916;6.900;2022-08-19T07:06:11;21.40;99.90
14946;DHT22;7567;50.916;6.900;2022-08-19T07:08:40;21.40;51.60
14946;DHT22;7567;50.916;6.900;2022-08-19T07:11:12;21.40;39.50
14946;DHT22;7567;50.916;6.900;2022-08-19T07:13:39;21.40;1.00
14946;DHT22;7567;50.916;6.900;2022-08-19T07:16:15;21.40;59.30
14946;DHT22;7567;50.916;6.900;2022-08-19T07:18:42;21.30;29.50
14946;DHT22;7567;50.916;6.900;2022-08-19T07:21:13;21.10;80.90
14946;DHT22;7567;50.916;6.900;2022-08-19T07:23:41;21.20;95.50
14946;DHT22;7567;50.916;6.900;2022-08-19T07:26:17;21.10;81.50
14946;DHT22;7567;50.916;6.900;2022-08-19T07:28:43;21.10;86.40
14946;DHT22;7567;50.916;6.900;2022-08-19T07:31:15;21.10;89.20
14946;DHT22;7567;50.916;6.900;2022-08-19T07:33:43;21.10;29.20
14946;DHT22;7567;50.916;6.900;2022-08-19T07:36:11;21.00;93.90
14946;DHT22;7567;50.916;6.900;2022-08-19T07:38:40;21.00;79.20
14946;DHT22;7567;50.916;6.900;2022-08-19T07:41:07;21.00;41.60
14946;DHT22;7567;50.916;6.900;2022-08-19T07:43:34;21.00;64.90
14946;DHT22;7567;50.916;6.900;2022-08-19T07:46:00;21.00;90.30
14946;DHT22;7567;50.916;6.900;2022-08-19T07:48:27;20.90;88.70
14946;DHT22;7567;50.916;6.900;2022-08-19T07:50:54;20.90;99.90
14946;DHT22;7567;50.916;6.900;2022-08-19T07:53:22;20.80;99.90
14946;DHT22;7567;50.916;6.900;2022-08-19T07:55:48;20.80;99.90
14946;DHT22;7567;50.916;6.900;2022-08-19T07:58:17;20.90;99.90
14946;DHT22;7567;50.916;6.900;2022-08-19T08:00:46;21.00;99.90
14946;DHT22;7567;50.916;6.900;2022-08-19T08:03:13;21.00;99.90
14946;DHT22;7567;50.916;6.900;2022-08-19T08:05:39;21.00;99.90
14946;DHT22;7567;50.916;6.900;2022-08-19T08:08:24;21.10;92.60
14946;DHT22;7567;50.916;6.900;2022-08-19T08:11:19;21.30;97.80
14946;DHT22;7567;50.916;6.900;2022-08-19T08:13:45;21.50;37.60
14946;DHT22;7567;50.916;6.900;2022-08-19T08:16:11;21.50;38.70
14946;DHT22;7567;50.916;6.900;2022-08-19T08:18:37;21.70;14.20
14946;DHT22;7567;50.916;6.900;2022-08-19T08:21:07;21.90;1.00
14946;DHT22;7567;50.916;6.900;2022-08-19T08:23:35;22.00;1.00
14946;DHT22;7567;50.916;6.900;2022-08-19T08:26:01;22.10;1.00
14946;DHT22;7567;50.916;6.900;2022-08-19T08:28:28;22.20;1.00
14946;DHT22;7567;50.916;6.900;2022-08-19T08:30:55;22.40;1.00
14946;DHT22;7567;50.916;6.900;2022-08-19T08:33:25;22.50;1.00
14946;DHT22;7567;50.916;6.900;2022-08-19T08:36:08;22.60;1.00
14946;DHT22;7567;50.916;6.900;2022-08-19T08:39:04;22.70;1.00
14946;DHT22;7567;50.916;6.900;2022-08-19T08:44:18;22.90;1.00
14946;DHT22;7567;50.916;6.900;2022-08-19T08:46:53;22.90;1.00
14946;DHT22;7567;50.916;6.900;2022-08-19T08:52:11;23.20;1.00
14946;DHT22;7567;50.916;6.900;2022-08-19T08:54:44;23.40;1.00
14946;DHT22;7567;50.916;6.900;2022-08-19T08:57:17;23.70;99.90
14946;DHT22;7567;50.916;6.900;2022-08-19T08:59:44;24.00;24.20
14946;DHT22;7567;50.916;6.900;2022-08-19T09:02:16;24.20;6.20
14946;DHT22;7567;50.916;6.900;2022-08-19T09:04:42;24.20;99.90
14946;DHT22;7567;50.916;6.900;2022-08-19T09:10:33;24.40;1.00
14946;DHT22;7567;50.916;6.900;2022-08-19T09:15:36;24.90;99.90
14946;DHT22;7567;50.916;6.900;2022-08-19T09:18:04;25.20;1.00
14946;DHT22;7567;50.916;6.900;2022-08-19T09:20:32;25.50;1.00
14946;DHT22;7567;50.916;6.900;2022-08-19T09:22:58;25.60;1.00
14946;DHT22;7567;50.916;6.900;2022-08-19T09:25:25;25.80;1.00
14946;DHT22;7567;50.916;6.900;2022-08-19T09:27:52;25.80;1.00
14946;DHT22;7567;50.916;6.900;2022-08-19T09:30:27;25.90;1.00
14946;DHT22;7567;50.916;6.900;2022-08-19T09:32:54;26.10;1.00
14946;DHT22;7567;50.916;6.900;2022-08-19T09:35:22;26.40;99.90
14946;DHT22;7567;50.916;6.900;2022-08-19T09:37:49;26.40;1.00
14946;DHT22;7567;50.916;6.900;2022-08-19T09:40:16;26.50;1.00
14946;DHT22;7567;50.916;6.900;2022-08-19T09:42:43;26.70;45.40
14946;DHT22;7567;50.916;6.900;2022-08-19T09:45:10;26.40;99.90
14946;DHT22;7567;50.916;6.900;2022-08-19T09:47:36;26.50;1.00
14946;DHT22;7567;50.916;6.900;2022-08-19T09:50:05;26.50;99.90
14946;DHT22;7567;50.916;6.900;2022-08-19T09:52:32;26.30;1.00
14946;DHT22;7567;50.916;6.900;2022-08-19T09:54:58;26.10;1.00
14946;DHT22;7567;50.916;6.900;2022-08-19T09:57:24;26.20;1.00
14946;DHT22;7567;50.916;6.900;2022-08-19T09:59:50;26.40;1.00
14946;DHT22;7567;50.916;6.900;2022-08-19T10:02:16;26.50;99.90
14946;DHT22;7567;50.916;6.900;2022-08-19T10:04:41;26.60;1.00
14946;DHT22;7567;50.916;6.900;2022-08-19T10:07:25;26.90;1.00
14946;DHT22;7567;50.916;6.900;2022-08-19T10:09:58;27.00;1.00
14946;DHT22;7567;50.916;6.900;2022-08-19T10:12:24;27.20;1.00
14946;DHT22;7567;50.916;6.900;2022-08-19T10:14:49;27.30;1.00
14946;DHT22;7567;50.916;6.900;2022-08-19T10:17:17;27.60;1.00
14946;DHT22;7567;50.916;6.900;2022-08-19T10:19:43;27.70;99.90
14946;DHT22;7567;50.916;6.900;2022-08-19T10:22:09;27.80;99.90
14946;DHT22;7567;50.916;6.900;2022-08-19T10:24:40;27.60;99.90
14946;DHT22;7567;50.916;6.900;2022-08-19T10:27:06;27.30;1.00
14946;DHT22;7567;50.916;6.900;2022-08-19T10:29:33;27.30;99.90
14946;DHT22;7567;50.916;6.900;2022-08-19T10:32:09;26.90;99.90
14946;DHT22;7567;50.916;6.900;2022-08-19T10:34:36;26.70;99.90
14946;DHT22;7567;50.916;6.900;2022-08-19T10:37:04;26.70;99.90
14946;DHT22;7567;50.916;6.900;2022-08-19T10:39:35;26.90;1.00
14946;DHT22;7567;50.916;6.900;2022-08-19T10:42:06;27.10;1.00
14946;DHT22;7567;50.916;6.900;2022-08-19T10:44:33;27.10;99.90
14946;DHT22;7567;50.916;6.900;2022-08-19T10:47:01;27.00;99.90
14946;DHT22;7567;50.916;6.900;2022-08-19T10:49:27;26.80;99.90
14946;DHT22;7567;50.916;6.900;2022-08-19T10:51:54;26.70;1.00
14946;DHT22;7567;50.916;6.900;2022-08-19T10:54:38;26.50;1.00
14946;DHT22;7567;50.916;6.900;2022-08-19T10:57:23;26.60;1.00
14946;DHT22;7567;50.916;6.900;2022-08-19T10:59:55;26.90;1.00
14946;DHT22;7567;50.916;6.900;2022-08-19T11:02:21;26.90;1.00
14946;DHT22;7567;50.916;6.900;2022-08-19T11:04:47;26.90;1.00
14946;DHT22;7567;50.916;6.900;2022-08-19T11:07:16;27.10;1.00
14946;DHT22;7567;50.916;6.900;2022-08-19T11:09:42;26.80;1.00
14946;DHT22;7567;50.916;6.900;2022-08-19T11:12:10;26.60;1.00
14946;DHT22;7567;50.916;6.900;2022-08-19T11:14:38;26.50;1.00
14946;DHT22;7567;50.916;6.900;2022-08-19T11:17:05;26.80;99.90
14946;DHT22;7567;50.916;6.900;2022-08-19T11:19:31;27.00;99.90
14946;DHT22;7567;50.916;6.900;2022-08-19T11:21:57;27.20;99.90
14946;DHT22;7567;50.916;6.900;2022-08-19T11:24:27;27.00;99.90
14946;DHT22;7567;50.916;6.900;2022-08-19T11:26:55;27.10;99.90
14946;DHT22;7567;50.916;6.900;2022-08-19T11:29:25;27.40;99.90
14946;DHT22;7567;50.916;6.900;2022-08-19T11:31:53;27.60;99.90
14946;DHT22;7567;50.916;6.900;2022-08-19T11:34:21;27.50;99.90
14946;DHT22;7567;50.916;6.900;2022-08-19T11:36:49;27.20;99.90
14946;DHT22;7567;50.916;6.900;2022-08-19T11:39:17;27.30;99.90
14946;DHT22;7567;50.916;6.900;2022-08-19T11:41:43;27.40;99.90
14946;DHT22;7567;50.916;6.900;2022-08-19T11:44:09;27.20;99.90
14946;DHT22;7567;50.916;6.900;2022-08-19T11:46:36;27.20;99.90
14946;DHT22;7567;50.916;6.900;2022-08-19T11:49:03;27.20;99.90
14946;DHT22;7567;50.916;6.900;2022-08-19T11:51:31;27.40;99.90
14946;DHT22;7567;50.916;6.900;2022-08-19T11:53:58;27.40;99.90
14946;DHT22;7567;50.916;6.900;2022-08-19T11:56:25;27.40;99.90
14946;DHT22;7567;50.916;6.900;2022-08-19T11:58:52;27.60;99.90
14946;DHT22;7567;50.916;6.900;2022-08-19T12:01:20;27.70;99.90
14946;DHT22;7567;50.916;6.900;2022-08-19T12:03:48;28.10;99.90
14946;DHT22;7567;50.916;6.900;2022-08-19T12:06:20;28.20;11.00
14946;DHT22;7567;50.916;6.900;2022-08-19T12:08:49;28.40;49.60
14946;DHT22;7567;50.916;6.900;2022-08-19T12:11:15;28.50;76.00
14946;DHT22;7567;50.916;6.900;2022-08-19T12:13:41;28.50;14.20
14946;DHT22;7567;50.916;6.900;2022-08-19T12:16:28;28.70;1.00
14946;DHT22;7567;50.916;6.900;2022-08-19T12:18:55;28.90;1.00
14946;DHT22;7567;50.916;6.900;2022-08-19T12:21:24;29.00;1.00
14946;DHT22;7567;50.916;6.900;2022-08-19T12:23:51;29.00;1.00
14946;DHT22;7567;50.916;6.900;2022-08-19T12:26:17;29.00;1.00
14946;DHT22;7567;50.916;6.900;2022-08-19T12:28:43;29.10;1.00
14946;DHT22;7567;50.916;6.900;2022-08-19T12:31:10;29.10;1.00
14946;DHT22;7567;50.916;6.900;2022-08-19T12:33:40;29.10;1.00
14946;DHT22;7567;50.916;6.900;2022-08-19T12:36:09;29.20;1.00
14946;DHT22;7567;50.916;6.900;2022-08-19T12:38:35;29.20;1.00
14946;DHT22;7567;50.916;6.900;2022-08-19T12:41:02;29.10;1.00
14946;DHT22;7567;50.916;6.900;2022-08-19T12:43:33;28.90;1.00
14946;DHT22;7567;50.916;6.900;2022-08-19T12:46:00;29.00;1.00
14946;DHT22;7567;50.916;6.900;2022-08-19T12:48:25;28.90;1.00
14946;DHT22;7567;50.916;6.900;2022-08-19T12:50:51;29.10;1.00
14946;DHT22;7567;50.916;6.900;2022-08-19T12:53:17;29.50;1.00
14946;DHT22;7567;50.916;6.900;2022-08-19T12:55:43;29.50;1.00
14946;DHT22;7567;50.916;6.900;2022-08-19T12:58:10;29.60;1.00
14946;DHT22;7567;50.916;6.900;2022-08-19T13:00:37;30.00;1.00
14946;DHT22;7567;50.916;6.900;2022-08-19T13:03:03;30.00;1.00
14946;DHT22;7567;50.916;6.900;2022-08-19T13:05:31;29.90;1.00
14946;DHT22;7567;50.916;6.900;2022-08-19T13:07:58;30.10;1.00
14946;DHT22;7567;50.916;6.900;2022-08-19T13:10:36;30.00;1.00
14946;DHT22;7567;50.916;6.900;2022-08-19T13:13:06;29.70;1.00
14946;DHT22;7567;50.916;6.900;2022-08-19T13:15:37;29.60;1.00
14946;DHT22;7567;50.916;6.900;2022-08-19T13:18:05;29.60;1.00
14946;DHT22;7567;50.916;6.900;2022-08-19T13:20:31;30.00;1.00
14946;DHT22;7567;50.916;6.900;2022-08-19T13:22:57;29.90;1.00
14946;DHT22;7567;50.916;6.900;2022-08-19T13:25:23;30.10;1.00
14946;DHT22;7567;50.916;6.900;2022-08-19T13:27:50;30.00;1.00
14946;DHT22;7567;50.916;6.900;2022-08-19T13:30:17;29.90;1.00
14946;DHT22;7567;50.916;6.900;2022-08-19T13:33:02;29.90;1.00
14946;DHT22;7567;50.916;6.900;2022-08-19T13:38:11;29.90;1.00
14946;DHT22;7567;50.916;6.900;2022-08-19T13:40:37;29.90;1.00
14946;DHT22;7567;50.916;6.900;2022-08-19T13:43:04;29.90;1.00
14946;DHT22;7567;50.916;6.900;2022-08-19T13:45:31;29.90;1.00
14946;DHT22;7567;50.916;6.900;2022-08-19T13:48:03;29.80;1.00
14946;DHT22;7567;50.916;6.900;2022-08-19T13:50:37;29.90;1.00
14946;DHT22;7567;50.916;6.900;2022-08-19T13:53:03;29.90;1.00
14946;DHT22;7567;50.916;6.900;2022-08-19T13:55:30;30.00;1.00
14946;DHT22;7567;50.916;6.900;2022-08-19T13:57:58;30.10;1.00
14946;DHT22;7567;50.916;6.900;2022-08-19T14:00:27;30.10;1.00
14946;DHT22;7567;50.916;6.900;2022-08-19T14:02:55;30.10;1.00
14946;DHT22;7567;50.916;6.900;2022-08-19T14:05:21;30.10;1.00
14946;DHT22;7567;50.916;6.900;2022-08-19T14:07:47;30.20;1.00
14946;DHT22;7567;50.916;6.900;2022-08-19T14:10:14;30.20;1.00
14946;DHT22;7567;50.916;6.900;2022-08-19T14:12:40;30.30;1.00
14946;DHT22;7567;50.916;6.900;2022-08-19T14:15:08;30.40;1.00
14946;DHT22;7567;50.916;6.900;2022-08-19T14:17:40;30.00;1.00
14946;DHT22;7567;50.916;6.900;2022-08-19T14:20:08;29.90;1.00
14946;DHT22;7567;50.916;6.900;2022-08-19T14:22:36;30.00;1.00
14946;DHT22;7567;50.916;6.900;2022-08-19T14:25:04;29.80;1.00
14946;DHT22;7567;50.916;6.900;2022-08-19T14:27:33;29.90;1.00
14946;DHT22;7567;50.916;6.900;2022-08-19T14:29:59;29.80;1.00
14946;DHT22;7567;50.916;6.900;2022-08-19T14:32:25;30.00;1.00
14946;DHT22;7567;50.916;6.900;2022-08-19T14:34:53;30.20;1.00
14946;DHT22;7567;50.916;6.900;2022-08-19T14:37:20;30.20;1.00
14946;DHT22;7567;50.916;6.900;2022-08-19T14:39:47;30.20;1.00
14946;DHT22;7567;50.916;6.900;2022-08-19T14:42:14;30.00;1.00
14946;DHT22;7567;50.916;6.900;2022-08-19T14:44:41;30.10;1.00
14946;DHT22;7567;50.916;6.900;2022-08-19T14:47:07;29.90;1.00
14946;DHT22;7567;50.916;6.900;2022-08-19T14:49:33;29.70;1.00
14946;DHT22;7567;50.916;6.900;2022-08-19T14:51:59;29.70;1.00
14946;DHT22;7567;50.916;6.900;2022-08-19T14:54:25;29.80;1.00
14946;DHT22;7567;50.916;6.900;2022-08-19T14:56:51;30.00;1.00
14946;DHT22;7567;50.916;6.900;2022-08-19T14:59:18;30.00;1.00
14946;DHT22;7567;50.916;6.900;2022-08-19T15:01:44;30.00;1.00
14946;DHT22;7567;50.916;6.900;2022-08-19T15:04:10;30.10;1.00
14946;DHT22;7567;50.916;6.900;2022-08-19T15:06:36;30.10;1.00
14946;DHT22;7567;50.916;6.900;2022-08-19T15:09:02;30.00;1.00
14946;DHT22;7567;50.916;6.900;2022-08-19T15:11:28;29.90;1.00
14946;DHT22;7567;50.916;6.900;2022-08-19T15:13:58;30.00;1.00
14946;DHT22;7567;50.916;6.900;2022-08-19T15:16:25;30.00;1.00
14946;DHT22;7567;50.916;6.900;2022-08-19T15:18:55;30.10;1.00
14946;DHT22;7567;50.916;6.900;2022-08-19T15:21:22;29.80;1.00
14946;DHT22;7567;50.916;6.900;2022-08-19T15:23:50;29.90;1.00
14946;DHT22;7567;50.916;6.900;2022-08-19T15:26:18;30.00;1.00
14946;DHT22;7567;50.916;6.900;2022-08-19T15:28:45;29.90;1.00
14946;DHT22;7567;50.916;6.900;2022-08-19T15:31:23;29.80;1.00
14946;DHT22;7567;50.916;6.900;2022-08-19T15:33:49;29.60;1.00
14946;DHT22;7567;50.916;6.900;2022-08-19T15:36:18;29.60;1.00
14946;DHT22;7567;50.916;6.900;2022-08-19T15:38:43;29.60;1.00
14946;DHT22;7567;50.916;6.900;2022-08-19T15:41:21;29.70;1.00
14946;DHT22;7567;50.916;6.900;2022-08-19T15:44:04;29.60;1.00
14946;DHT22;7567;50.916;6.900;2022-08-19T15:46:35;29.40;1.00
14946;DHT22;7567;50.916;6.900;2022-08-19T15:49:01;29.10;1.00
14946;DHT22;7567;50.916;6.900;2022-08-19T15:51:29;28.70;1.00
14946;DHT22;7567;50.916;6.900;2022-08-19T15:53:56;28.40;1.00
14946;DHT22;7567;50.916;6.900;2022-08-19T15:56:22;28.40;1.00
14946;DHT22;7567;50.916;6.900;2022-08-19T15:58:47;28.60;1.00
14946;DHT22;7567;50.916;6.900;2022-08-19T16:01:32;28.60;1.00
14946;DHT22;7567;50.916;6.900;2022-08-19T16:03:59;28.90;1.00
14946;DHT22;7567;50.916;6.900;2022-08-19T16:06:49;29.10;1.00
14946;DHT22;7567;50.916;6.900;2022-08-19T16:09:16;29.00;1.00
14946;DHT22;7567;50.916;6.900;2022-08-19T16:11:42;28.80;1.00
14946;DHT22;7567;50.916;6.900;2022-08-19T16:14:09;28.80;1.00
14946;DHT22;7567;50.916;6.900;2022-08-19T16:16:36;28.70;1.00
14946;DHT22;7567;50.916;6.900;2022-08-19T16:19:04;28.70;1.00